Time;durP1;ratioP1;P1;durP2;ratioP2;P2;SDS_P1;SDS_P2;PMS_P1;PMS_P2;Temp;Humidity;BMP_temperature;BMP_pressure;BME280_temperature;BME280_humidity;BME280_pressure;Samples;Min_cycle;Max_cycle;Signal;HPM_P1;HPM_P2
2021/11/24 00:00:42;;;;;;;;;;;;;;;19.89;50.55;99503.94;2041088;28;19929;-68
2021/11/24 00:01:42;;;;;;;;;;;;;;;19.91;50.66;99511.97;2036525;28;19918;-68
2021/11/24 00:02:42;;;;;;;;;;;;;;;19.89;50.58;99503.06;2040123;28;19929;-68
2021/11/24 00:03:43;;;;;;;;;;;;;;;19.89;50.57;99500.34;2038785;28;20493;-68
2021/11/24 00:04:43;;;;;;;;;;;;;;;19.89;50.69;99508.53;2039809;28;20021;-68
2021/11/24 00:05:43;;;;;;;;;;;;;;;19.88;50.69;99506.84;2040545;28;19965;-68
2021/11/24 00:06:44;;;;;;;;;;;;;;;19.88;50.60;99501.38;2038684;28;20448;-67
2021/11/24 00:07:44;;;;;;;;;;;;;;;19.89;50.64;99511.28;2046303;28;20301;-68
2021/11/24 00:08:44;;;;;;;;;;;;;;;19.89;50.79;99511.28;2048332;28;19912;-68
2021/11/24 00:09:45;;;;;;;;;;;;;;;19.90;50.73;99504.81;2046199;28;19914;-68
2021/11/24 00:10:45;;;;;;;;;;;;;;;19.90;50.68;99507.53;2042295;28;20620;-68
2021/11/24 00:11:45;;;;;;;;;;;;;;;19.89;50.74;99514.00;2040952;28;20672;-68
2021/11/24 00:12:46;;;;;;;;;;;;;;;19.89;50.68;99508.53;2041022;28;19922;-68
2021/11/24 00:13:46;;;;;;;;;;;;;;;19.90;50.57;99499.34;2043512;28;19925;-68
2021/11/24 00:14:47;;;;;;;;;;;;;;;19.89;50.51;99498.47;2041065;28;19929;-68
2021/11/24 00:15:47;;;;;;;;;;;;;;;19.92;50.55;99500.03;2048911;28;20118;-68
2021/11/24 00:16:47;;;;;;;;;;;;;;;19.92;50.51;99497.28;2047196;28;19953;-68
2021/11/24 00:17:49;;;;;;;;;;;;;;;19.91;50.53;99490.09;2042335;28;20305;-67
2021/11/24 00:18:49;;;;;;;;;;;;;;;19.92;50.53;99498.13;2049161;28;20349;-68
2021/11/24 00:19:49;;;;;;;;;;;;;;;19.94;50.61;99502.56;2041926;28;19917;-67
2021/11/24 00:20:50;;;;;;;;;;;;;;;19.94;50.45;99505.31;2042854;28;19916;-68
2021/11/24 00:21:50;;;;;;;;;;;;;;;19.95;50.58;99507.88;2040261;28;20008;-68
2021/11/24 00:22:50;;;;;;;;;;;;;;;19.96;50.51;99515.06;2043168;28;19945;-66
2021/11/24 00:23:50;;;;;;;;;;;;;;;19.96;50.38;99509.56;2042385;28;19914;-68
2021/11/24 00:24:51;;;;;;;;;;;;;;;19.97;50.41;99505.84;2040423;28;20293;-68
2021/11/24 00:25:51;;;;;;;;;;;;;;;19.98;50.41;99510.28;2043561;28;19949;-68
2021/11/24 00:26:52;;;;;;;;;;;;;;;19.97;50.37;99508.56;2040053;28;19948;-67
2021/11/24 00:27:52;;;;;;;;;;;;;;;19.98;50.41;99507.53;2042733;28;20396;-68
2021/11/24 00:28:52;;;;;;;;;;;;;;;20.00;50.40;99513.69;2042061;28;19910;-68
2021/11/24 00:29:54;;;;;;;;;;;;;;;20.00;50.26;99504.63;2041536;28;19910;-68
2021/11/24 00:30:55;;;;;;;;;;;;;;;20.00;50.21;99500.00;2039976;28;20013;-68
2021/11/24 00:31:55;;;;;;;;;;;;;;;20.01;50.31;99501.72;2041648;28;19918;-68
2021/11/24 00:32:56;;;;;;;;;;;;;;;20.01;50.42;99501.72;2043716;28;19924;-68
2021/11/24 00:33:57;;;;;;;;;;;;;;;20.00;50.15;99500.00;2035052;28;19961;-68
2021/11/24 00:34:57;;;;;;;;;;;;;;;20.01;50.17;99507.19;2040271;28;19933;-68
2021/11/24 00:35:59;;;;;;;;;;;;;;;20.02;50.14;99497.97;2038495;28;20393;-68
2021/11/24 00:36:59;;;;;;;;;;;;;;;20.02;50.31;99503.44;2037678;28;19918;-69
2021/11/24 00:38:00;;;;;;;;;;;;;;;20.03;50.16;99493.34;2040557;28;19914;-68
2021/11/24 00:39:00;;;;;;;;;;;;;;;20.02;50.34;99495.22;2038537;28;20322;-68
2021/11/24 00:40:01;;;;;;;;;;;;;;;20.03;50.15;99494.19;2041133;28;20689;-68
2021/11/24 00:41:01;;;;;;;;;;;;;;;20.03;50.29;99499.66;2040125;28;19918;-68
2021/11/24 00:42:01;;;;;;;;;;;;;;;20.03;50.14;99496.09;2038682;28;19925;-68
2021/11/24 00:43:02;;;;;;;;;;;;;;;20.04;50.15;99486.84;2042738;28;19922;-68
2021/11/24 00:44:02;;;;;;;;;;;;;;;20.04;50.30;99484.97;2038293;28;19969;-67
2021/11/24 00:45:03;;;;;;;;;;;;;;;20.04;50.10;99490.44;2041066;28;19918;-68
2021/11/24 00:46:04;;;;;;;;;;;;;;;20.05;50.20;99491.31;2040375;28;19918;-68
2021/11/24 00:47:04;;;;;;;;;;;;;;;20.05;50.11;99485.84;2040925;28;19918;-67
2021/11/24 00:48:04;;;;;;;;;;;;;;;20.04;50.24;99479.50;2040234;28;19929;-68
2021/11/24 00:49:05;;;;;;;;;;;;;;;20.03;50.23;99475.03;2040008;28;20012;-68
2021/11/24 00:50:06;;;;;;;;;;;;;;;20.04;50.27;99474.03;2050671;28;19960;-68
2021/11/24 00:51:06;;;;;;;;;;;;;;;20.04;50.20;99482.25;2048848;28;19914;-68
2021/11/24 00:52:07;;;;;;;;;;;;;;;20.04;50.13;99479.50;2041770;28;19915;-68
2021/11/24 00:53:07;;;;;;;;;;;;;;;20.04;50.06;99474.03;2044062;28;20074;-68
2021/11/24 00:54:08;;;;;;;;;;;;;;;20.04;50.24;99482.25;2039526;28;19922;-68
2021/11/24 00:55:08;;;;;;;;;;;;;;;20.05;50.28;99486.69;2040217;28;20573;-69
2021/11/24 00:56:09;;;;;;;;;;;;;;;20.05;50.33;99480.34;2038924;28;20332;-68
2021/11/24 00:57:09;;;;;;;;;;;;;;;20.05;50.33;99481.22;2041313;28;20281;-67
2021/11/24 00:58:09;;;;;;;;;;;;;;;20.04;50.21;99484.97;2048283;28;19913;-68
2021/11/24 00:59:10;;;;;;;;;;;;;;;20.05;50.11;99491.31;2048032;28;19921;-67
2021/11/24 01:00:15;;;;;;;;;;;;;;;20.04;50.15;99479.50;2046649;28;19918;-68
2021/11/24 01:01:15;;;;;;;;;;;;;;;20.04;50.14;99493.19;2039400;28;19934;-68
2021/11/24 01:02:15;;;;;;;;;;;;;;;20.04;50.20;99487.72;2042160;28;19918;-68
2021/11/24 01:03:16;;;;;;;;;;;;;;;20.04;50.19;99484.97;2039789;28;19914;-68
2021/11/24 01:04:16;;;;;;;;;;;;;;;20.04;50.27;99490.44;2039805;28;20057;-68
2021/11/24 01:05:17;;;;;;;;;;;;;;;20.04;50.21;99482.25;2041390;28;20533;-67
2021/11/24 01:06:17;;;;;;;;;;;;;;;20.04;50.14;99490.44;2043507;28;20326;-68
2021/11/24 01:07:17;;;;;;;;;;;;;;;20.04;50.30;99495.94;2041329;28;19918;-68
2021/11/24 01:08:18;;;;;;;;;;;;;;;20.04;50.15;99493.19;2040738;28;20013;-68
2021/11/24 01:09:18;;;;;;;;;;;;;;;20.04;50.13;99501.41;2041188;28;19918;-68
2021/11/24 01:10:18;;;;;;;;;;;;;;;20.04;50.16;99495.94;2039093;28;20449;-68
2021/11/24 01:11:19;;;;;;;;;;;;;;;20.03;50.20;99499.66;2035317;28;20131;-68
2021/11/24 01:12:20;;;;;;;;;;;;;;;20.03;50.29;99483.25;2039979;28;19918;-68
2021/11/24 01:13:20;;;;;;;;;;;;;;;20.04;50.35;99492.31;2038471;28;19925;-68
2021/11/24 01:14:21;;;;;;;;;;;;;;;20.03;50.21;99494.19;2042083;28;19921;-68
2021/11/24 01:15:22;;;;;;;;;;;;;;;20.03;50.19;99499.66;2041239;28;20731;-68
2021/11/24 01:16:22;;;;;;;;;;;;;;;20.03;50.21;99505.13;2041387;28;19922;-68
2021/11/24 01:17:23;;;;;;;;;;;;;;;20.03;50.12;99496.09;2045140;28;20440;-68
2021/11/24 01:18:23;;;;;;;;;;;;;;;20.03;50.25;99494.19;2041218;28;19919;-68
2021/11/24 01:19:23;;;;;;;;;;;;;;;20.03;50.17;99494.19;2039813;28;20141;-68
2021/11/24 01:20:24;;;;;;;;;;;;;;;20.02;50.23;99497.97;2040018;28;20803;-69
2021/11/24 01:21:24;;;;;;;;;;;;;;;20.01;50.37;99501.72;2043022;28;20058;-68
2021/11/24 01:22:25;;;;;;;;;;;;;;;20.02;50.25;99502.59;2040395;28;19917;-68
2021/11/24 01:23:25;;;;;;;;;;;;;;;20.02;50.47;99508.06;2038867;28;19914;-68
2021/11/24 01:24:25;;;;;;;;;;;;;;;20.01;50.38;99504.44;2042252;28;19972;-68
2021/11/24 01:25:26;;;;;;;;;;;;;;;20.02;50.37;99505.34;2048174;28;19964;-68
2021/11/24 01:26:27;;;;;;;;;;;;;;;20.01;50.27;99507.19;2044645;28;19926;-67
2021/11/24 01:27:27;;;;;;;;;;;;;;;20.02;50.40;99510.81;2041316;28;19937;-69
2021/11/24 01:28:27;;;;;;;;;;;;;;;20.01;50.47;99498.13;2040578;28;20416;-68
2021/11/24 01:29:27;;;;;;;;;;;;;;;20.01;50.41;99488.03;2043440;28;20216;-68
2021/11/24 01:30:28;;;;;;;;;;;;;;;20.01;50.35;99489.91;2040308;28;19925;-68
2021/11/24 01:31:28;;;;;;;;;;;;;;;20.00;50.48;99500.00;2041847;28;19917;-68
2021/11/24 01:32:29;;;;;;;;;;;;;;;20.00;50.48;99500.00;2042272;28;19953;-68
2021/11/24 01:33:29;;;;;;;;;;;;;;;20.00;50.31;99505.50;2041956;28;20464;-68
2021/11/24 01:34:29;;;;;;;;;;;;;;;20.00;50.27;99502.75;2036297;28;19926;-68
2021/11/24 01:35:30;;;;;;;;;;;;;;;20.00;50.46;99505.50;2042825;28;20380;-68
2021/11/24 01:36:30;;;;;;;;;;;;;;;20.01;50.37;99506.34;2042558;28;19938;-68
2021/11/24 01:37:31;;;;;;;;;;;;;;;19.99;50.47;99509.25;2043498;28;20333;-68
2021/11/24 01:38:31;;;;;;;;;;;;;;;19.99;50.51;99503.78;2041416;28;20385;-68
2021/11/24 01:39:31;;;;;;;;;;;;;;;19.99;50.39;99506.53;2048178;28;19914;-68
2021/11/24 01:40:32;;;;;;;;;;;;;;;19.98;50.57;99507.53;2047840;28;20402;-68
2021/11/24 01:41:32;;;;;;;;;;;;;;;19.97;50.36;99500.38;2047162;28;19954;-68
2021/11/24 01:42:33;;;;;;;;;;;;;;;19.98;50.37;99509.41;2037118;28;19915;-68
2021/11/24 01:43:34;;;;;;;;;;;;;;;19.98;50.44;99504.78;2042259;28;19917;-67
2021/11/24 01:44:34;;;;;;;;;;;;;;;19.98;50.48;99503.94;2042768;28;19929;-68
2021/11/24 01:45:35;;;;;;;;;;;;;;;19.96;50.47;99506.84;2039569;28;20188;-68
2021/11/24 01:46:35;;;;;;;;;;;;;;;19.96;50.39;99495.91;2039191;28;20508;-68
2021/11/24 01:47:35;;;;;;;;;;;;;;;19.97;50.47;99505.00;2037361;28;20422;-68
2021/11/24 01:48:36;;;;;;;;;;;;;;;19.97;50.33;99508.56;2048267;28;19906;-68
2021/11/24 01:49:36;;;;;;;;;;;;;;;19.96;50.56;99508.72;2045585;28;20903;-68
2021/11/24 01:50:37;;;;;;;;;;;;;;;19.96;50.41;99509.56;2040245;28;20175;-68
2021/11/24 01:51:37;;;;;;;;;;;;;;;19.96;50.53;99503.25;2038407;28;19918;-68
2021/11/24 01:52:38;;;;;;;;;;;;;;;19.95;50.38;99507.88;2035827;28;19911;-68
2021/11/24 01:53:38;;;;;;;;;;;;;;;19.95;50.44;99494.19;2042905;28;19957;-68
2021/11/24 01:54:38;;;;;;;;;;;;;;;19.95;50.38;99502.41;2040663;28;19933;-68
2021/11/24 01:55:39;;;;;;;;;;;;;;;19.94;50.50;99489.75;2035540;28;19914;-68
2021/11/24 01:56:39;;;;;;;;;;;;;;;19.94;50.50;99497.94;2036564;28;19906;-68
2021/11/24 01:57:41;;;;;;;;;;;;;;;19.94;50.47;99511.63;2044008;28;19922;-68
2021/11/24 01:58:44;;;;;;;;;;;;;;;19.94;50.51;99505.31;2041403;28;19918;-67
2021/11/24 01:59:47;;;;;;;;;;;;;;;19.93;50.55;99512.66;2041515;28;19929;-68
2021/11/24 02:00:47;;;;;;;;;;;;;;;19.92;50.58;99508.22;2038540;28;19961;-71
2021/11/24 02:01:48;;;;;;;;;;;;;;;19.92;50.48;99503.59;2042584;28;19910;-70
2021/11/24 02:02:48;;;;;;;;;;;;;;;19.92;50.53;99508.22;2035840;28;19925;-68
2021/11/24 02:03:48;;;;;;;;;;;;;;;19.90;50.48;99500.19;2037497;28;19918;-68
2021/11/24 02:04:49;;;;;;;;;;;;;;;19.90;50.51;99496.59;2036129;28;19915;-68
2021/11/24 02:05:49;;;;;;;;;;;;;;;19.92;50.58;99502.75;2039280;28;20771;-68
2021/11/24 02:06:50;;;;;;;;;;;;;;;19.92;50.62;99494.56;2037431;28;20169;-68
2021/11/24 02:08:15;;;;;;;;;;;;;;;19.89;50.52;99497.59;2042961;28;20682;-68
2021/11/24 02:09:16;;;;;;;;;;;;;;;19.90;50.65;99504.81;2037783;28;20001;-68
2021/11/24 02:10:19;;;;;;;;;;;;;;;19.90;50.56;99507.53;2041782;28;19929;-67
2021/11/24 02:11:19;;;;;;;;;;;;;;;19.91;50.57;99506.50;2035304;28;20427;-68
2021/11/24 02:12:20;;;;;;;;;;;;;;;19.89;50.54;99498.47;2041345;28;20487;-67
2021/11/24 02:13:20;;;;;;;;;;;;;;;19.90;50.57;99504.81;2035941;28;20368;-69
2021/11/24 02:14:20;;;;;;;;;;;;;;;19.88;50.66;99501.38;2041127;28;19978;-68
2021/11/24 02:15:21;;;;;;;;;;;;;;;19.89;50.65;99512.16;2041852;28;19918;-68
2021/11/24 02:16:21;;;;;;;;;;;;;;;19.88;50.67;99510.44;2043352;28;19977;-68
2021/11/24 02:17:21;;;;;;;;;;;;;;;19.88;50.58;99512.31;2036194;28;20571;-68
2021/11/24 02:18:22;;;;;;;;;;;;;;;19.87;50.52;99506.00;2044820;28;20029;-68
2021/11/24 02:19:28;;;;;;;;;;;;;;;19.88;50.58;99498.66;2044270;28;20206;-68
2021/11/24 02:20:34;;;;;;;;;;;;;;;19.87;50.61;99495.06;2038291;28;20460;-68
2021/11/24 02:21:34;;;;;;;;;;;;;;;19.88;50.54;99501.38;2039054;28;20361;-68
2021/11/24 02:22:35;;;;;;;;;;;;;;;19.87;50.70;99505.16;2051727;28;19926;-68
2021/11/24 02:23:35;;;;;;;;;;;;;;;19.87;50.57;99507.88;2040708;28;20289;-68
2021/11/24 02:24:36;;;;;;;;;;;;;;;19.87;50.62;99496.94;2038674;28;19929;-68
2021/11/24 02:25:46;;;;;;;;;;;;;;;19.87;50.74;99502.41;2041146;28;19914;-68
2021/11/24 02:26:46;;;;;;;;;;;;;;;19.86;50.56;99500.69;2042525;28;19925;-68
2021/11/24 02:27:47;;;;;;;;;;;;;;;19.87;50.53;99499.69;2038885;28;19929;-68
2021/11/24 02:28:48;;;;;;;;;;;;;;;19.85;50.59;99491.63;2040194;28;19918;-68
2021/11/24 02:29:48;;;;;;;;;;;;;;;19.85;50.68;99504.47;2042610;28;19917;-68
2021/11/24 02:30:50;;;;;;;;;;;;;;;19.84;50.73;99491.78;2038784;28;19962;-68
2021/11/24 02:31:53;;;;;;;;;;;;;;;19.84;50.70;99500.00;2050099;28;19918;-68
2021/11/24 02:32:53;;;;;;;;;;;;;;;19.85;50.67;99496.25;2046857;28;20605;-67
2021/11/24 02:33:55;;;;;;;;;;;;;;;19.84;50.73;99508.19;2053244;28;20340;-68
2021/11/24 02:34:55;;;;;;;;;;;;;;;19.84;50.63;99513.66;2043544;28;19926;-67
2021/11/24 02:35:55;;;;;;;;;;;;;;;19.84;50.58;99520.03;2047582;28;19922;-68
2021/11/24 02:36:56;;;;;;;;;;;;;;;19.83;50.74;99521.03;2046814;28;19955;-68
2021/11/24 02:37:57;;;;;;;;;;;;;;;19.84;50.63;99510.94;2037855;28;20020;-68
2021/11/24 02:38:59;;;;;;;;;;;;;;;19.83;50.70;99510.09;2044844;28;19914;-68
2021/11/24 02:39:59;;;;;;;;;;;;;;;19.82;50.63;99508.38;2041617;28;19922;-68
2021/11/24 02:40:59;;;;;;;;;;;;;;;19.83;50.57;99514.72;2048371;28;19926;-68
2021/11/24 02:42:00;;;;;;;;;;;;;;;19.83;50.96;99520.19;2042672;28;19942;-68
2021/11/24 02:43:01;;;;;;;;;;;;;;;19.82;50.66;99518.44;2040979;28;19919;-68
2021/11/24 02:44:23;;;;;;;;;;;;;;;19.83;50.68;99518.28;2053711;28;19926;-68
2021/11/24 02:45:24;;;;;;;;;;;;;;;19.82;50.81;99504.78;2045163;28;20213;-68
2021/11/24 02:46:25;;;;;;;;;;;;;;;19.82;50.79;99519.31;2042253;28;19914;-68
2021/11/24 02:47:25;;;;;;;;;;;;;;;19.82;50.80;99508.38;2044396;28;19906;-68
2021/11/24 02:48:26;;;;;;;;;;;;;;;19.80;50.73;99509.59;2044561;28;19918;-68
2021/11/24 02:49:26;;;;;;;;;;;;;;;19.80;50.88;99515.91;2043344;28;19960;-68
2021/11/24 02:50:26;;;;;;;;;;;;;;;19.80;50.85;99509.59;2044888;28;19924;-68
2021/11/24 02:51:27;;;;;;;;;;;;;;;19.80;50.93;99509.59;2044294;28;19918;-68
2021/11/24 02:52:27;;;;;;;;;;;;;;;19.81;50.89;99511.28;2040960;28;19927;-68
2021/11/24 02:53:32;;;;;;;;;;;;;;;19.80;50.81;99504.13;2041147;28;19924;-68
2021/11/24 02:54:33;;;;;;;;;;;;;;;19.80;50.82;99510.44;2044037;28;20435;-68
2021/11/24 02:55:33;;;;;;;;;;;;;;;19.81;50.98;99516.75;2045169;28;19925;-68
2021/11/24 02:56:34;;;;;;;;;;;;;;;19.79;51.04;99513.31;2039913;28;19925;-68
2021/11/24 02:57:44;;;;;;;;;;;;;;;19.79;50.99;99518.78;2043365;28;20314;-68
2021/11/24 02:58:45;;;;;;;;;;;;;;;19.79;51.06;99518.78;2045489;28;20400;-68
2021/11/24 02:59:45;;;;;;;;;;;;;;;19.79;51.00;99518.78;2043004;28;20381;-68
2021/11/24 03:00:45;;;;;;;;;;;;;;;19.78;50.98;99517.09;2044838;28;19910;-68
2021/11/24 03:01:45;;;;;;;;;;;;;;;19.77;50.99;99510.78;2044371;28;20554;-68
2021/11/24 03:02:46;;;;;;;;;;;;;;;19.78;51.05;99514.34;2043640;28;20682;-68
2021/11/24 03:03:46;;;;;;;;;;;;;;;19.77;51.03;99516.25;2044046;28;19922;-68
2021/11/24 03:04:47;;;;;;;;;;;;;;;19.78;51.05;99514.34;2042079;28;19911;-68
2021/11/24 03:05:47;;;;;;;;;;;;;;;19.77;51.06;99515.38;2044805;28;19968;-68
2021/11/24 03:06:47;;;;;;;;;;;;;;;19.78;51.09;99517.09;2044297;28;20372;-68
2021/11/24 03:07:48;;;;;;;;;;;;;;;19.76;51.03;99519.97;2040741;28;20579;-68
2021/11/24 03:08:48;;;;;;;;;;;;;;;19.76;51.08;99513.66;2043684;28;19972;-68
2021/11/24 03:09:52;;;;;;;;;;;;;;;19.75;51.09;99511.97;2041723;28;20468;-68
2021/11/24 03:10:52;;;;;;;;;;;;;;;19.76;50.94;99513.66;2037188;28;19926;-68
2021/11/24 03:11:54;;;;;;;;;;;;;;;19.75;51.08;99511.97;2037361;28;19910;-68
2021/11/24 03:12:55;;;;;;;;;;;;;;;19.74;50.89;99516.56;2041692;28;20405;-68
2021/11/24 03:13:59;;;;;;;;;;;;;;;19.75;51.09;99517.44;2042652;28;19918;-68
2021/11/24 03:15:14;;;;;;;;;;;;;;;19.74;51.03;99519.28;2044289;28;19925;-68
2021/11/24 03:16:14;;;;;;;;;;;;;;;19.73;51.12;99522.22;2041354;28;19960;-68
2021/11/24 03:17:15;;;;;;;;;;;;;;;19.74;51.13;99523.91;2043666;28;19972;-68
2021/11/24 03:18:15;;;;;;;;;;;;;;;19.74;51.22;99526.66;2043136;28;19945;-68
2021/11/24 03:19:15;;;;;;;;;;;;;;;19.73;51.12;99528.53;2043160;28;19918;-68
2021/11/24 03:20:16;;;;;;;;;;;;;;;19.74;51.11;99521.19;2044322;28;20282;-69
2021/11/24 03:21:16;;;;;;;;;;;;;;;19.73;51.12;99519.47;2045033;28;20385;-68
2021/11/24 03:22:22;;;;;;;;;;;;;;;19.73;51.22;99522.22;2045260;28;19917;-68
2021/11/24 03:23:23;;;;;;;;;;;;;;;19.72;51.21;99521.38;2044398;28;19926;-68
2021/11/24 03:24:23;;;;;;;;;;;;;;;19.72;51.05;99520.47;2041737;28;20663;-68
2021/11/24 03:25:24;;;;;;;;;;;;;;;19.70;51.24;99518.78;2043827;28;19953;-68
2021/11/24 03:26:24;;;;;;;;;;;;;;;19.72;51.27;99517.75;2044794;28;19928;-68
2021/11/24 03:27:33;;;;;;;;;;;;;;;19.70;51.28;99518.78;2044825;28;19962;-68
2021/11/24 03:28:33;;;;;;;;;;;;;;;19.70;51.24;99509.72;2036662;28;20032;-68
2021/11/24 03:29:33;;;;;;;;;;;;;;;19.70;51.27;99513.31;2041884;28;20222;-68
2021/11/24 03:30:34;;;;;;;;;;;;;;;19.69;51.31;99511.59;2043400;28;19918;-68
2021/11/24 03:31:34;;;;;;;;;;;;;;;19.69;51.29;99497.91;2042310;28;19914;-68
2021/11/24 03:32:34;;;;;;;;;;;;;;;19.69;51.33;99497.91;2043192;28;20279;-68
2021/11/24 03:33:38;;;;;;;;;;;;;;;19.68;51.27;99498.94;2044482;28;20346;-67
2021/11/24 03:34:38;;;;;;;;;;;;;;;19.68;51.25;99501.69;2043284;28;19922;-68
2021/11/24 03:35:39;;;;;;;;;;;;;;;19.68;51.31;99498.94;2043338;28;19914;-68
2021/11/24 03:36:40;;;;;;;;;;;;;;;19.68;51.27;99496.22;2043970;28;19984;-68
2021/11/24 03:37:40;;;;;;;;;;;;;;;19.67;51.22;99500.00;2043103;28;19918;-68
2021/11/24 03:38:41;;;;;;;;;;;;;;;19.68;51.19;99500.84;2051135;28;20343;-68
2021/11/24 03:39:41;;;;;;;;;;;;;;;19.67;51.36;99494.53;2045052;28;19954;-68
2021/11/24 03:40:41;;;;;;;;;;;;;;;19.67;51.38;99488.13;2044060;28;19907;-68
2021/11/24 03:41:42;;;;;;;;;;;;;;;19.68;51.34;99495.38;2044010;28;19913;-68
2021/11/24 03:42:45;;;;;;;;;;;;;;;19.67;51.33;99489.06;2043423;28;19997;-68
2021/11/24 03:43:46;;;;;;;;;;;;;;;19.67;51.47;99494.53;2042804;28;19925;-67
2021/11/24 03:44:46;;;;;;;;;;;;;;;19.67;51.47;99494.53;2043884;28;19925;-68
2021/11/24 03:45:47;;;;;;;;;;;;;;;19.65;51.45;99491.06;2043899;28;19925;-68
2021/11/24 03:46:47;;;;;;;;;;;;;;;19.66;51.49;99492.75;2044267;28;20413;-68
2021/11/24 03:47:47;;;;;;;;;;;;;;;19.66;51.52;99494.66;2042070;28;20197;-68
2021/11/24 03:48:48;;;;;;;;;;;;;;;19.66;51.52;99498.22;2043015;28;20412;-68
2021/11/24 03:49:48;;;;;;;;;;;;;;;19.65;51.50;99493.78;2044154;28;19925;-68
2021/11/24 03:50:49;;;;;;;;;;;;;;;19.65;51.49;99492.94;2043104;28;19922;-68
2021/11/24 03:51:51;;;;;;;;;;;;;;;19.65;51.45;99484.75;2043435;28;20056;-68
2021/11/24 03:52:51;;;;;;;;;;;;;;;19.65;51.49;99490.22;2042701;28;19918;-68
2021/11/24 03:53:51;;;;;;;;;;;;;;;19.64;51.50;99486.59;2041886;28;20728;-68
2021/11/24 03:54:52;;;;;;;;;;;;;;;19.63;51.51;99487.63;2044046;28;19922;-68
2021/11/24 03:55:52;;;;;;;;;;;;;;;19.63;51.48;99492.25;2042828;28;19918;-68
2021/11/24 03:56:52;;;;;;;;;;;;;;;19.62;51.50;99485.94;2043361;28;19925;-68
2021/11/24 03:57:53;;;;;;;;;;;;;;;19.63;51.58;99492.25;2043454;28;19922;-68
2021/11/24 03:58:53;;;;;;;;;;;;;;;19.62;51.46;99488.66;2042732;28;19928;-68
2021/11/24 03:59:53;;;;;;;;;;;;;;;19.63;51.62;99492.25;2044104;28;20533;-68
2021/11/24 04:00:53;;;;;;;;;;;;;;;19.63;51.53;99487.63;2037303;28;20282;-68
2021/11/24 04:01:54;;;;;;;;;;;;;;;19.62;51.67;99482.31;2036490;28;19939;-68
2021/11/24 04:02:54;;;;;;;;;;;;;;;19.61;51.60;99483.38;2043888;28;19921;-68
2021/11/24 04:03:54;;;;;;;;;;;;;;;19.62;51.60;99483.22;2038933;28;20017;-68
2021/11/24 04:04:55;;;;;;;;;;;;;;;19.60;51.72;99487.09;2035872;28;20367;-68
2021/11/24 04:05:55;;;;;;;;;;;;;;;19.60;51.66;99487.97;2050019;28;20323;-68
2021/11/24 04:06:55;;;;;;;;;;;;;;;19.60;51.70;99489.84;2042187;28;20313;-67
2021/11/24 04:07:56;;;;;;;;;;;;;;;19.60;51.67;99487.97;2043181;28;20403;-68
2021/11/24 04:08:56;;;;;;;;;;;;;;;19.60;51.66;99487.09;2038740;28;19918;-68
2021/11/24 04:09:56;;;;;;;;;;;;;;;19.59;51.75;99486.25;2037783;28;19918;-68
2021/11/24 04:10:57;;;;;;;;;;;;;;;19.59;51.77;99494.44;2043470;28;19977;-68
2021/11/24 04:11:57;;;;;;;;;;;;;;;19.58;51.75;99484.56;2040775;28;19914;-68
2021/11/24 04:12:57;;;;;;;;;;;;;;;19.58;51.78;99490.03;2045929;28;19911;-68
2021/11/24 04:13:58;;;;;;;;;;;;;;;19.57;51.68;99488.28;2046854;28;19918;-68
2021/11/24 04:14:58;;;;;;;;;;;;;;;19.57;51.79;99491.03;2048711;28;19921;-68
2021/11/24 04:15:59;;;;;;;;;;;;;;;19.57;51.79;99479.25;2041057;28;19928;-68
2021/11/24 04:16:59;;;;;;;;;;;;;;;19.57;51.71;99482.81;2041498;28;20135;-68
2021/11/24 04:18:00;;;;;;;;;;;;;;;19.57;51.73;99482.81;2043911;28;19943;-68
2021/11/24 04:19:01;;;;;;;;;;;;;;;19.56;51.91;99481.13;2041786;28;19961;-68
2021/11/24 04:20:02;;;;;;;;;;;;;;;19.56;51.91;99481.13;2044211;28;19921;-68
2021/11/24 04:21:03;;;;;;;;;;;;;;;19.56;51.92;99481.13;2042025;28;20545;-68
2021/11/24 04:22:03;;;;;;;;;;;;;;;19.55;51.88;99473.97;2041753;28;20415;-68
2021/11/24 04:23:03;;;;;;;;;;;;;;;19.54;51.90;99474.97;2044092;28;19918;-68
2021/11/24 04:24:04;;;;;;;;;;;;;;;19.55;51.87;99478.56;2037778;28;19919;-68
2021/11/24 04:25:05;;;;;;;;;;;;;;;19.54;51.83;99474.97;2036152;28;19910;-68
2021/11/24 04:26:05;;;;;;;;;;;;;;;19.55;51.88;99478.56;2043702;28;19922;-68
2021/11/24 04:27:05;;;;;;;;;;;;;;;19.54;51.94;99472.22;2046490;28;19995;-68
2021/11/24 04:28:06;;;;;;;;;;;;;;;19.54;51.95;99469.50;2034670;28;19971;-68
2021/11/24 04:29:06;;;;;;;;;;;;;;;19.52;51.94;99471.53;2036843;28;19914;-68
2021/11/24 04:30:07;;;;;;;;;;;;;;;19.53;51.96;99476.00;2036320;28;19938;-68
2021/11/24 04:31:09;;;;;;;;;;;;;;;19.53;51.94;99476.00;2038851;28;20011;-68
2021/11/24 04:32:09;;;;;;;;;;;;;;;19.52;51.94;99479.75;2039151;28;20033;-68
2021/11/24 04:33:09;;;;;;;;;;;;;;;19.53;51.95;99483.34;2041880;28;19914;-68
2021/11/24 04:34:10;;;;;;;;;;;;;;;19.53;51.92;99486.09;2042945;28;19925;-68
2021/11/24 04:35:10;;;;;;;;;;;;;;;19.52;51.93;99485.22;2041380;28;20321;-68
2021/11/24 04:36:11;;;;;;;;;;;;;;;19.52;51.91;99485.22;2040735;28;20278;-68
2021/11/24 04:37:11;;;;;;;;;;;;;;;19.51;51.93;99483.50;2043081;28;20143;-68
2021/11/24 04:38:11;;;;;;;;;;;;;;;19.51;52.04;99478.03;2050368;28;19922;-68
2021/11/24 04:39:12;;;;;;;;;;;;;;;19.51;51.95;99488.13;2050292;28;19914;-68
2021/11/24 04:40:12;;;;;;;;;;;;;;;19.51;52.02;99488.97;2039985;28;19915;-68
2021/11/24 04:41:13;;;;;;;;;;;;;;;19.51;52.08;99485.41;2041301;28;19906;-68
2021/11/24 04:42:13;;;;;;;;;;;;;;;19.51;52.06;99478.03;2041324;28;19918;-68
2021/11/24 04:43:15;;;;;;;;;;;;;;;19.51;52.01;99478.03;2042649;28;19917;-68
2021/11/24 04:44:15;;;;;;;;;;;;;;;19.50;52.10;99492.75;2039417;28;19948;-68
2021/11/24 04:45:16;;;;;;;;;;;;;;;19.50;51.99;99484.53;2038867;28;19966;-68
2021/11/24 04:46:17;;;;;;;;;;;;;;;19.48;52.07;99481.13;2041945;28;19918;-68
2021/11/24 04:47:18;;;;;;;;;;;;;;;19.48;52.12;99487.44;2042660;28;19957;-68
2021/11/24 04:48:18;;;;;;;;;;;;;;;19.48;52.16;99484.69;2043357;28;19925;-68
2021/11/24 04:49:18;;;;;;;;;;;;;;;19.48;52.06;99484.69;2050043;28;19924;-68
2021/11/24 04:50:19;;;;;;;;;;;;;;;19.48;52.23;99483.84;2047958;28;19925;-68
2021/11/24 04:51:19;;;;;;;;;;;;;;;19.47;52.07;99490.31;2043272;28;19918;-68
2021/11/24 04:52:19;;;;;;;;;;;;;;;19.46;52.30;99492.22;2038566;28;19918;-68
2021/11/24 04:53:20;;;;;;;;;;;;;;;19.47;52.18;99484.84;2043266;28;19925;-68
2021/11/24 04:54:20;;;;;;;;;;;;;;;19.46;52.24;99480.44;2043772;28;19924;-68
2021/11/24 04:55:21;;;;;;;;;;;;;;;19.46;52.19;99485.91;2050282;28;20011;-68
2021/11/24 04:56:21;;;;;;;;;;;;;;;19.45;52.15;99478.69;2050674;28;20373;-68
2021/11/24 04:57:21;;;;;;;;;;;;;;;19.45;52.25;99465.03;2041838;28;19914;-68
2021/11/24 04:58:22;;;;;;;;;;;;;;;19.45;52.17;99473.22;2042531;28;19914;-68
2021/11/24 04:59:22;;;;;;;;;;;;;;;19.44;52.25;99466.06;2037484;28;19925;-68
2021/11/24 05:00:23;;;;;;;;;;;;;;;19.44;52.23;99466.06;2050179;28;19996;-68
2021/11/24 05:01:24;;;;;;;;;;;;;;;19.44;52.27;99468.81;2049222;28;19934;-67
2021/11/24 05:02:24;;;;;;;;;;;;;;;19.43;52.34;99459.75;2040854;28;19940;-68
2021/11/24 05:03:24;;;;;;;;;;;;;;;19.42;52.33;99468.94;2042637;28;19918;-68
2021/11/24 05:04:26;;;;;;;;;;;;;;;19.43;52.22;99464.38;2041484;28;19918;-68
2021/11/24 05:05:29;;;;;;;;;;;;;;;19.42;52.27;99473.56;2039850;28;19945;-68
2021/11/24 05:06:29;;;;;;;;;;;;;;;19.43;52.33;99472.56;2042359;28;19914;-68
2021/11/24 05:07:29;;;;;;;;;;;;;;;19.42;52.33;99473.56;2043455;28;19925;-68
2021/11/24 05:08:30;;;;;;;;;;;;;;;19.42;52.25;99468.09;2042318;28;19941;-69
2021/11/24 05:09:30;;;;;;;;;;;;;;;19.42;52.34;99462.63;2042281;28;19922;-68
2021/11/24 05:10:30;;;;;;;;;;;;;;;19.42;52.37;99468.09;2042800;28;19915;-67
2021/11/24 05:11:31;;;;;;;;;;;;;;;19.42;52.43;99471.69;2042622;28;20066;-69
2021/11/24 05:12:33;;;;;;;;;;;;;;;19.41;52.29;99466.41;2042687;28;20297;-68
2021/11/24 05:13:35;;;;;;;;;;;;;;;19.41;52.34;99471.88;2042322;28;19918;-68
2021/11/24 05:14:36;;;;;;;;;;;;;;;19.40;52.42;99471.03;2037113;28;19936;-68
2021/11/24 05:15:44;;;;;;;;;;;;;;;19.40;52.37;99475.63;2041499;28;19917;-68
2021/11/24 05:16:47;;;;;;;;;;;;;;;19.42;52.39;99481.78;2045327;28;20132;-68
2021/11/24 05:17:51;;;;;;;;;;;;;;;19.41;52.45;99480.06;2042218;28;19918;-68